Serge-Frolow Ile Tromelin, Reunion
Current Conditions -  °F | °C
As of 12:00 PM on Monday 24 Nov 2014 (Local Time) from FMEE Reporting Station
Few Clouds Few Clouds  
Wind Chill: 88°   Ceiling: Unl
Heat Index: 93°   Visibility: 6mi
Dew Point: 70°   Wind: 23mph
Humidity: 55%   Direction: 80°E
Pressure: 29.97"   Gusts: NA
Location:  15.88°S, 54.52°E
Report Text: FMEE 240800Z 08020KT 9999 FEW028 31/21 Q1015 NOSIG
Loading
Personal Weather Stations






























Interactive Weather Map New forecast layout! Learn more

10-Day Weather Forecast

Advertisements
Track Severe Weather on mobile